sensor_id;sensor_type;location;lat;lon;timestamp;pressure;altitude;pressure_sealevel;temperature;humidity
15260;BME280;34462;51.368;12.364;2023-04-22T00:00:54;19901.22;;;-141.84;60.32
15260;BME280;34462;51.368;12.364;2023-04-22T00:03:23;19923.59;;;-141.84;59.62
15260;BME280;34462;51.368;12.364;2023-04-22T00:05:51;19901.22;;;-141.84;60.01
15260;BME280;34462;51.368;12.364;2023-04-22T00:08:20;19917.50;;;-141.84;60.25
15260;BME280;34462;51.368;12.364;2023-04-22T00:10:50;19931.72;;;-141.84;60.18
15260;BME280;34462;51.368;12.364;2023-04-22T00:13:18;19927.66;;;-141.84;59.69
15260;BME280;34462;51.368;12.364;2023-04-22T00:15:46;19921.56;;;-141.84;59.68
15260;BME280;34462;51.368;12.364;2023-04-22T00:18:14;19895.13;;;-141.84;60.16
15260;BME280;34462;51.368;12.364;2023-04-22T00:20:42;19895.13;;;-141.84;60.21
15260;BME280;34462;51.368;12.364;2023-04-22T00:23:11;19903.25;;;-141.84;60.69
15260;BME280;34462;51.368;12.364;2023-04-22T00:25:40;19878.88;;;-141.84;60.89
15260;BME280;34462;51.368;12.364;2023-04-22T00:28:09;19870.75;;;-141.84;60.67
15260;BME280;34462;51.368;12.364;2023-04-22T00:30:37;19899.19;;;-141.84;60.42
15260;BME280;34462;51.368;12.364;2023-04-22T00:33:07;19858.56;;;-141.84;60.83
15260;BME280;34462;51.368;12.364;2023-04-22T00:35:35;19887.00;;;-141.84;60.87
15260;BME280;34462;51.368;12.364;2023-04-22T00:38:03;19878.88;;;-141.84;61.02
15260;BME280;34462;51.368;12.364;2023-04-22T00:40:31;19874.81;;;-141.84;60.38
15260;BME280;34462;51.368;12.364;2023-04-22T00:43:00;19870.75;;;-141.84;60.49
15260;BME280;34462;51.368;12.364;2023-04-22T00:45:30;19909.34;;;-141.84;60.47
15260;BME280;34462;51.368;12.364;2023-04-22T00:47:59;19901.22;;;-141.84;60.36
15260;BME280;34462;51.368;12.364;2023-04-22T00:50:27;19905.28;;;-141.84;60.54
15260;BME280;34462;51.368;12.364;2023-04-22T00:52:56;19947.97;;;-141.84;59.99
15260;BME280;34462;51.368;12.364;2023-04-22T00:55:25;19882.94;;;-141.84;60.06
15260;BME280;34462;51.368;12.364;2023-04-22T00:57:59;19909.34;;;-141.84;59.94
15260;BME280;34462;51.368;12.364;2023-04-22T01:00:28;19897.16;;;-141.84;60.07
15260;BME280;34462;51.368;12.364;2023-04-22T01:02:57;19899.19;;;-141.84;59.62
15260;BME280;34462;51.368;12.364;2023-04-22T01:05:28;19911.41;;;-141.84;59.46
15260;BME280;34462;51.368;12.364;2023-04-22T01:07:58;19895.13;;;-141.84;59.83
15260;BME280;34462;51.368;12.364;2023-04-22T01:10:26;19864.66;;;-141.84;59.92
15260;BME280;34462;51.368;12.364;2023-04-22T01:12:54;19880.91;;;-141.84;60.25
15260;BME280;34462;51.368;12.364;2023-04-22T01:15:23;19874.81;;;-141.84;60.20
15260;BME280;34462;51.368;12.364;2023-04-22T01:17:52;19880.91;;;-141.84;60.10
15260;BME280;34462;51.368;12.364;2023-04-22T01:20:23;19876.84;;;-141.84;60.31
15260;BME280;34462;51.368;12.364;2023-04-22T01:22:56;19887.00;;;-141.84;60.69
15260;BME280;34462;51.368;12.364;2023-04-22T01:25:26;19878.88;;;-141.84;60.77
15260;BME280;34462;51.368;12.364;2023-04-22T01:27:55;19862.63;;;-141.84;59.66
15260;BME280;34462;51.368;12.364;2023-04-22T01:30:23;19903.25;;;-141.84;59.69
15260;BME280;34462;51.368;12.364;2023-04-22T01:32:51;19878.88;;;-141.84;59.61
15260;BME280;34462;51.368;12.364;2023-04-22T01:35:20;19895.13;;;-141.84;59.71
15260;BME280;34462;51.368;12.364;2023-04-22T01:37:51;19895.13;;;-141.84;59.33
15260;BME280;34462;51.368;12.364;2023-04-22T01:40:20;19909.34;;;-141.84;59.47
15260;BME280;34462;51.368;12.364;2023-04-22T01:42:51;19870.75;;;-141.84;59.74
15260;BME280;34462;51.368;12.364;2023-04-22T01:45:19;19884.97;;;-141.84;59.23
15260;BME280;34462;51.368;12.364;2023-04-22T01:47:47;19893.09;;;-141.84;58.88
15260;BME280;34462;51.368;12.364;2023-04-22T01:50:15;19913.44;;;-141.84;59.13
15260;BME280;34462;51.368;12.364;2023-04-22T01:52:44;19903.25;;;-141.84;59.69
15260;BME280;34462;51.368;12.364;2023-04-22T01:55:12;19872.78;;;-141.84;59.95
15260;BME280;34462;51.368;12.364;2023-04-22T01:57:40;19830.09;;;-141.84;60.00
15260;BME280;34462;51.368;12.364;2023-04-22T02:00:12;19858.56;;;-141.84;60.28
15260;BME280;34462;51.368;12.364;2023-04-22T02:02:40;19862.63;;;-141.84;60.02
15260;BME280;34462;51.368;12.364;2023-04-22T02:05:09;19866.69;;;-141.84;59.94
15260;BME280;34462;51.368;12.364;2023-04-22T02:07:37;19884.97;;;-141.84;59.50
15260;BME280;34462;51.368;12.364;2023-04-22T02:10:07;19895.13;;;-141.84;59.58
15260;BME280;34462;51.368;12.364;2023-04-22T02:12:35;19870.75;;;-141.84;59.93
15260;BME280;34462;51.368;12.364;2023-04-22T02:15:05;19909.34;;;-141.84;59.65
15260;BME280;34462;51.368;12.364;2023-04-22T02:17:35;19899.19;;;-141.84;59.65
15260;BME280;34462;51.368;12.364;2023-04-22T02:20:05;19878.88;;;-141.84;59.77
15260;BME280;34462;51.368;12.364;2023-04-22T02:22:33;19860.59;;;-141.84;60.03
15260;BME280;34462;51.368;12.364;2023-04-22T02:25:03;19858.56;;;-141.84;60.45
15260;BME280;34462;51.368;12.364;2023-04-22T02:27:32;19858.56;;;-141.84;60.89
15260;BME280;34462;51.368;12.364;2023-04-22T02:30:00;19856.53;;;-141.84;61.02
15260;BME280;34462;51.368;12.364;2023-04-22T02:32:29;19805.72;;;-141.84;61.41
15260;BME280;34462;51.368;12.364;2023-04-22T02:34:59;19801.66;;;-141.84;62.02
15260;BME280;34462;51.368;12.364;2023-04-22T02:37:28;19828.06;;;-141.84;61.76
15260;BME280;34462;51.368;12.364;2023-04-22T02:39:56;19817.91;;;-141.84;61.83
15260;BME280;34462;51.368;12.364;2023-04-22T02:42:24;19840.25;;;-141.84;61.88
15260;BME280;34462;51.368;12.364;2023-04-22T02:44:52;19824.00;;;-141.84;61.77
15260;BME280;34462;51.368;12.364;2023-04-22T02:47:20;19785.38;;;-141.84;61.98
15260;BME280;34462;51.368;12.364;2023-04-22T02:49:49;19793.50;;;-141.84;62.44
15260;BME280;34462;51.368;12.364;2023-04-22T02:52:19;19815.88;;;-141.84;62.33
15260;BME280;34462;51.368;12.364;2023-04-22T02:54:47;19789.44;;;-141.84;62.15
15260;BME280;34462;51.368;12.364;2023-04-22T02:57:15;19838.22;;;-141.84;61.83
15260;BME280;34462;51.368;12.364;2023-04-22T02:59:43;19797.59;;;-141.84;62.32
15260;BME280;34462;51.368;12.364;2023-04-22T03:02:12;19785.38;;;-141.84;62.11
15260;BME280;34462;51.368;12.364;2023-04-22T03:04:40;19832.13;;;-141.84;62.07
15260;BME280;34462;51.368;12.364;2023-04-22T03:07:08;19832.13;;;-141.84;62.27
15260;BME280;34462;51.368;12.364;2023-04-22T03:09:38;19761.00;;;-141.84;62.13
15260;BME280;34462;51.368;12.364;2023-04-22T03:12:07;19781.31;;;-141.84;61.88
15260;BME280;34462;51.368;12.364;2023-04-22T03:14:36;19799.63;;;-141.84;62.15
15260;BME280;34462;51.368;12.364;2023-04-22T03:17:07;19793.50;;;-141.84;62.41
15260;BME280;34462;51.368;12.364;2023-04-22T03:19:35;19765.06;;;-141.84;62.84
15260;BME280;34462;51.368;12.364;2023-04-22T03:22:03;19775.22;;;-141.84;63.05
15260;BME280;34462;51.368;12.364;2023-04-22T03:24:31;19750.84;;;-141.84;63.35
15260;BME280;34462;51.368;12.364;2023-04-22T03:27:01;19777.25;;;-141.84;63.59
15260;BME280;34462;51.368;12.364;2023-04-22T03:29:29;19781.31;;;-141.84;63.89
15260;BME280;34462;51.368;12.364;2023-04-22T03:31:57;19758.97;;;-141.84;63.57
15260;BME280;34462;51.368;12.364;2023-04-22T03:34:26;19750.84;;;-141.84;63.80
15260;BME280;34462;51.368;12.364;2023-04-22T03:36:54;19748.81;;;-141.84;64.00
15260;BME280;34462;51.368;12.364;2023-04-22T03:39:22;19783.34;;;-141.84;63.42
15260;BME280;34462;51.368;12.364;2023-04-22T03:41:50;19761.00;;;-141.84;63.50
15260;BME280;34462;51.368;12.364;2023-04-22T03:44:20;19752.88;;;-141.84;63.68
15260;BME280;34462;51.368;12.364;2023-04-22T03:46:48;19761.00;;;-141.84;63.63
15260;BME280;34462;51.368;12.364;2023-04-22T03:49:16;19769.13;;;-141.84;63.26
15260;BME280;34462;51.368;12.364;2023-04-22T03:51:45;19767.09;;;-141.84;63.17
15260;BME280;34462;51.368;12.364;2023-04-22T03:54:13;19756.94;;;-141.84;62.99
15260;BME280;34462;51.368;12.364;2023-04-22T03:56:41;19771.16;;;-141.84;63.14
15260;BME280;34462;51.368;12.364;2023-04-22T03:59:09;19761.00;;;-141.84;63.25
15260;BME280;34462;51.368;12.364;2023-04-22T04:01:39;19761.00;;;-141.84;62.82
15260;BME280;34462;51.368;12.364;2023-04-22T04:04:07;19787.41;;;-141.84;62.33
15260;BME280;34462;51.368;12.364;2023-04-22T04:06:35;19811.81;;;-141.84;62.82
15260;BME280;34462;51.368;12.364;2023-04-22T04:09:04;19738.66;;;-141.84;62.98
15260;BME280;34462;51.368;12.364;2023-04-22T04:11:32;19785.38;;;-141.84;62.30
15260;BME280;34462;51.368;12.364;2023-04-22T04:14:00;19799.63;;;-141.84;62.75
15260;BME280;34462;51.368;12.364;2023-04-22T04:16:29;19773.19;;;-141.84;63.01
15260;BME280;34462;51.368;12.364;2023-04-22T04:18:59;19752.88;;;-141.84;63.26
15260;BME280;34462;51.368;12.364;2023-04-22T04:21:27;19779.28;;;-141.84;63.17
15260;BME280;34462;51.368;12.364;2023-04-22T04:23:55;19775.22;;;-141.84;63.13
15260;BME280;34462;51.368;12.364;2023-04-22T04:26:23;19775.22;;;-141.84;62.35
15260;BME280;34462;51.368;12.364;2023-04-22T04:28:53;19750.84;;;-141.84;62.66
15260;BME280;34462;51.368;12.364;2023-04-22T04:31:22;19791.47;;;-141.84;62.86
15260;BME280;34462;51.368;12.364;2023-04-22T04:33:51;19754.91;;;-141.84;62.65
15260;BME280;34462;51.368;12.364;2023-04-22T04:36:21;19781.31;;;-141.84;62.54
15260;BME280;34462;51.368;12.364;2023-04-22T04:38:51;19765.06;;;-141.84;63.00
15260;BME280;34462;51.368;12.364;2023-04-22T04:41:21;19771.16;;;-141.84;63.10
15260;BME280;34462;51.368;12.364;2023-04-22T04:43:52;19807.75;;;-141.84;62.63
15260;BME280;34462;51.368;12.364;2023-04-22T04:46:20;19819.94;;;-141.84;62.03
15260;BME280;34462;51.368;12.364;2023-04-22T04:48:49;19811.81;;;-141.84;61.98
15260;BME280;34462;51.368;12.364;2023-04-22T04:51:21;19803.69;;;-141.84;61.88
15260;BME280;34462;51.368;12.364;2023-04-22T04:53:49;19799.63;;;-141.84;61.62
15260;BME280;34462;51.368;12.364;2023-04-22T04:56:17;19858.56;;;-141.84;60.58
15260;BME280;34462;51.368;12.364;2023-04-22T04:58:45;19864.66;;;-141.84;60.80
15260;BME280;34462;51.368;12.364;2023-04-22T05:01:13;19862.63;;;-141.84;60.09
15260;BME280;34462;51.368;12.364;2023-04-22T05:03:41;19862.63;;;-141.84;60.21
15260;BME280;34462;51.368;12.364;2023-04-22T05:06:10;19866.69;;;-141.84;60.43
15260;BME280;34462;51.368;12.364;2023-04-22T05:08:39;19895.13;;;-141.84;59.57
15260;BME280;34462;51.368;12.364;2023-04-22T05:11:07;19909.34;;;-141.84;58.70
15260;BME280;34462;51.368;12.364;2023-04-22T05:13:36;19978.47;;;-141.84;58.05
15260;BME280;34462;51.368;12.364;2023-04-22T05:16:05;20008.94;;;-141.84;57.06
15260;BME280;34462;51.368;12.364;2023-04-22T05:18:33;19980.50;;;-141.84;56.86
15260;BME280;34462;51.368;12.364;2023-04-22T05:21:02;20013.00;;;-141.84;56.08
15260;BME280;34462;51.368;12.364;2023-04-22T05:23:30;20047.56;;;-141.84;55.90
15260;BME280;34462;51.368;12.364;2023-04-22T05:26:00;20080.09;;;-141.84;55.61
15260;BME280;34462;51.368;12.364;2023-04-22T05:28:28;20074.00;;;-141.84;54.17
15260;BME280;34462;51.368;12.364;2023-04-22T05:30:56;20143.09;;;-141.84;53.79
15260;BME280;34462;51.368;12.364;2023-04-22T05:33:24;20155.28;;;-141.84;53.44
15260;BME280;34462;51.368;12.364;2023-04-22T05:35:53;20139.03;;;-141.84;52.96
15260;BME280;34462;51.368;12.364;2023-04-22T05:38:21;20161.38;;;-141.84;52.88
15260;BME280;34462;51.368;12.364;2023-04-22T05:40:51;20228.47;;;-141.84;52.56
15260;BME280;34462;51.368;12.364;2023-04-22T05:43:21;20195.94;;;-141.84;52.08
15260;BME280;34462;51.368;12.364;2023-04-22T05:45:49;20230.50;;;-141.84;51.72
15260;BME280;34462;51.368;12.364;2023-04-22T05:48:17;20228.47;;;-141.84;51.75
15260;BME280;34462;51.368;12.364;2023-04-22T05:50:45;20260.97;;;-141.84;50.78
15260;BME280;34462;51.368;12.364;2023-04-22T05:53:13;20244.72;;;-141.84;51.31
15260;BME280;34462;51.368;12.364;2023-04-22T05:55:41;20291.47;;;-141.84;51.01
15260;BME280;34462;51.368;12.364;2023-04-22T05:58:10;20301.63;;;-141.84;50.90
15260;BME280;34462;51.368;12.364;2023-04-22T06:00:39;20297.56;;;-141.84;50.58
15260;BME280;34462;51.368;12.364;2023-04-22T06:03:07;20285.38;;;-141.84;50.76
15260;BME280;34462;51.368;12.364;2023-04-22T06:05:36;20305.69;;;-141.84;50.69
15260;BME280;34462;51.368;12.364;2023-04-22T06:08:04;20271.16;;;-141.84;50.44
15260;BME280;34462;51.368;12.364;2023-04-22T06:10:32;20307.72;;;-141.84;50.55
15260;BME280;34462;51.368;12.364;2023-04-22T06:13:00;20317.91;;;-141.84;50.78
15260;BME280;34462;51.368;12.364;2023-04-22T06:15:29;20321.97;;;-141.84;51.06
15260;BME280;34462;51.368;12.364;2023-04-22T06:17:59;20293.50;;;-141.84;50.90
15260;BME280;34462;51.368;12.364;2023-04-22T06:20:27;20311.78;;;-141.84;51.50
15260;BME280;34462;51.368;12.364;2023-04-22T06:22:55;20342.28;;;-141.84;50.95
15260;BME280;34462;51.368;12.364;2023-04-22T06:25:23;20332.13;;;-141.84;50.73
15260;BME280;34462;51.368;12.364;2023-04-22T06:27:51;20328.06;;;-141.84;50.41
15260;BME280;34462;51.368;12.364;2023-04-22T06:30:20;20368.72;;;-141.84;49.97
15260;BME280;34462;51.368;12.364;2023-04-22T06:32:48;20372.78;;;-141.84;50.13
15260;BME280;34462;51.368;12.364;2023-04-22T06:35:17;20378.88;;;-141.84;50.72
15260;BME280;34462;51.368;12.364;2023-04-22T06:37:47;20358.56;;;-141.84;50.55
15260;BME280;34462;51.368;12.364;2023-04-22T06:40:15;20362.63;;;-141.84;50.88
15260;BME280;34462;51.368;12.364;2023-04-22T06:42:43;20364.66;;;-141.84;50.95
15260;BME280;34462;51.368;12.364;2023-04-22T06:45:11;20354.47;;;-141.84;51.09
15260;BME280;34462;51.368;12.364;2023-04-22T06:47:40;20374.81;;;-141.84;51.10
15260;BME280;34462;51.368;12.364;2023-04-22T06:50:09;20387.00;;;-141.84;51.21
15260;BME280;34462;51.368;12.364;2023-04-22T06:52:39;20407.34;;;-141.84;50.36
15260;BME280;34462;51.368;12.364;2023-04-22T06:55:08;20433.75;;;-141.84;50.15
15260;BME280;34462;51.368;12.364;2023-04-22T06:57:36;20427.66;;;-141.84;49.63
15260;BME280;34462;51.368;12.364;2023-04-22T07:00:06;20439.84;;;-141.84;49.77
15260;BME280;34462;51.368;12.364;2023-04-22T07:02:35;20417.50;;;-141.84;49.91
15260;BME280;34462;51.368;12.364;2023-04-22T07:05:04;20433.75;;;-141.84;50.29
15260;BME280;34462;51.368;12.364;2023-04-22T07:07:32;20447.97;;;-141.84;50.33
15260;BME280;34462;51.368;12.364;2023-04-22T07:10:02;20431.72;;;-141.84;50.41
15260;BME280;34462;51.368;12.364;2023-04-22T07:12:30;20433.75;;;-141.84;50.41
15260;BME280;34462;51.368;12.364;2023-04-22T07:14:58;20480.50;;;-141.84;50.30
15260;BME280;34462;51.368;12.364;2023-04-22T07:17:26;20472.38;;;-141.84;49.74
15260;BME280;34462;51.368;12.364;2023-04-22T07:19:54;20492.72;;;-141.84;49.88
15260;BME280;34462;51.368;12.364;2023-04-22T07:22:23;20478.47;;;-141.84;50.19
15260;BME280;34462;51.368;12.364;2023-04-22T07:24:51;20484.56;;;-141.84;50.00
15260;BME280;34462;51.368;12.364;2023-04-22T07:27:20;20527.25;;;-141.84;49.24
15260;BME280;34462;51.368;12.364;2023-04-22T07:29:48;20598.41;;;-141.84;48.34
15260;BME280;34462;51.368;12.364;2023-04-22T07:32:17;20590.28;;;-141.84;48.23
15260;BME280;34462;51.368;12.364;2023-04-22T07:34:45;20576.03;;;-141.84;48.04
15260;BME280;34462;51.368;12.364;2023-04-22T07:37:13;20606.53;;;-141.84;47.93
15260;BME280;34462;51.368;12.364;2023-04-22T07:39:41;20612.63;;;-141.84;48.18
15260;BME280;34462;51.368;12.364;2023-04-22T07:42:09;20645.16;;;-141.84;47.98
15260;BME280;34462;51.368;12.364;2023-04-22T07:44:40;20669.56;;;-141.84;47.72
15260;BME280;34462;51.368;12.364;2023-04-22T07:47:08;20693.94;;;-141.84;47.12
15260;BME280;34462;51.368;12.364;2023-04-22T07:49:36;20647.19;;;-141.84;47.08
15260;BME280;34462;51.368;12.364;2023-04-22T07:52:05;20675.66;;;-141.84;46.93
15260;BME280;34462;51.368;12.364;2023-04-22T07:54:33;20714.28;;;-141.84;46.47
15260;BME280;34462;51.368;12.364;2023-04-22T07:57:01;20710.22;;;-141.84;46.13
15260;BME280;34462;51.368;12.364;2023-04-22T07:59:29;20783.41;;;-141.84;45.20
15260;BME280;34462;51.368;12.364;2023-04-22T08:01:59;20756.97;;;-141.84;45.31
15260;BME280;34462;51.368;12.364;2023-04-22T08:04:27;20779.31;;;-141.84;45.47
15260;BME280;34462;51.368;12.364;2023-04-22T08:06:55;20809.81;;;-141.84;44.80
15260;BME280;34462;51.368;12.364;2023-04-22T08:09:23;20791.53;;;-141.84;45.08
15260;BME280;34462;51.368;12.364;2023-04-22T08:11:52;20822.03;;;-141.84;44.94
15260;BME280;34462;51.368;12.364;2023-04-22T08:14:20;20826.09;;;-141.84;44.71
15260;BME280;34462;51.368;12.364;2023-04-22T08:16:50;20832.19;;;-141.84;44.77
15260;BME280;34462;51.368;12.364;2023-04-22T08:19:21;20850.47;;;-141.84;43.85
15260;BME280;34462;51.368;12.364;2023-04-22T08:21:49;20874.88;;;-141.84;43.93
15260;BME280;34462;51.368;12.364;2023-04-22T08:24:17;20883.00;;;-141.84;43.68
15260;BME280;34462;51.368;12.364;2023-04-22T08:26:46;20909.44;;;-141.84;43.88
15260;BME280;34462;51.368;12.364;2023-04-22T08:29:14;20927.72;;;-141.84;43.80
15260;BME280;34462;51.368;12.364;2023-04-22T08:31:42;20966.34;;;-141.84;43.66
15260;BME280;34462;51.368;12.364;2023-04-22T08:34:11;20962.28;;;-141.84;43.02
15260;BME280;34462;51.368;12.364;2023-04-22T08:36:41;20978.56;;;-141.84;42.46
15260;BME280;34462;51.368;12.364;2023-04-22T08:39:09;20966.34;;;-141.84;42.01
15260;BME280;34462;51.368;12.364;2023-04-22T08:41:38;20984.66;;;-141.84;42.20
15260;BME280;34462;51.368;12.364;2023-04-22T08:44:07;21015.16;;;-141.84;41.79
15260;BME280;34462;51.368;12.364;2023-04-22T08:46:38;21076.13;;;-141.84;41.89
15260;BME280;34462;51.368;12.364;2023-04-22T08:49:07;21096.47;;;-141.84;40.74
15260;BME280;34462;51.368;12.364;2023-04-22T08:51:37;21098.50;;;-141.84;40.72
15260;BME280;34462;51.368;12.364;2023-04-22T08:54:07;21129.00;;;-141.84;40.63
15260;BME280;34462;51.368;12.364;2023-04-22T08:56:40;21135.09;;;-141.84;40.71
15260;BME280;34462;51.368;12.364;2023-04-22T08:59:09;21143.22;;;-141.84;40.16
15260;BME280;34462;51.368;12.364;2023-04-22T09:01:39;21159.50;;;-141.84;40.32
15260;BME280;34462;51.368;12.364;2023-04-22T09:04:09;21185.91;;;-141.84;40.24
15260;BME280;34462;51.368;12.364;2023-04-22T09:06:39;21192.03;;;-141.84;40.85
15260;BME280;34462;51.368;12.364;2023-04-22T09:09:08;21190.00;;;-141.84;40.86
15260;BME280;34462;51.368;12.364;2023-04-22T09:11:37;21200.16;;;-141.84;40.31
15260;BME280;34462;51.368;12.364;2023-04-22T09:14:05;21246.91;;;-141.84;40.26
15260;BME280;34462;51.368;12.364;2023-04-22T09:16:40;21248.94;;;-141.84;40.10
15260;BME280;34462;51.368;12.364;2023-04-22T09:19:11;21285.53;;;-141.84;40.29
15260;BME280;34462;51.368;12.364;2023-04-22T09:21:40;21291.66;;;-141.84;40.19
15260;BME280;34462;51.368;12.364;2023-04-22T09:24:11;21281.47;;;-141.84;40.67
15260;BME280;34462;51.368;12.364;2023-04-22T09:26:40;21269.28;;;-141.84;39.88
15260;BME280;34462;51.368;12.364;2023-04-22T09:29:14;21301.81;;;-141.84;39.15
15260;BME280;34462;51.368;12.364;2023-04-22T09:31:47;21314.00;;;-141.84;39.55
15260;BME280;34462;51.368;12.364;2023-04-22T09:34:16;21318.06;;;-141.84;39.64
15260;BME280;34462;51.368;12.364;2023-04-22T09:36:44;21309.94;;;-141.84;40.69
15260;BME280;34462;51.368;12.364;2023-04-22T09:43:18;21320.09;;;-141.84;40.20
15260;BME280;34462;51.368;12.364;2023-04-22T09:45:46;21346.53;;;-141.84;40.23
15260;BME280;34462;51.368;12.364;2023-04-22T09:48:18;21348.56;;;-141.84;40.19
15260;BME280;34462;51.368;12.364;2023-04-22T09:50:49;21399.41;;;-141.84;40.52
15260;BME280;34462;51.368;12.364;2023-04-22T09:53:20;21314.00;;;-141.84;40.39
15260;BME280;34462;51.368;12.364;2023-04-22T09:55:53;21314.00;;;-141.84;40.61
15260;BME280;34462;51.368;12.364;2023-04-22T09:58:22;21309.94;;;-141.84;40.81
15260;BME280;34462;51.368;12.364;2023-04-22T10:00:55;21366.88;;;-141.84;40.24
15260;BME280;34462;51.368;12.364;2023-04-22T10:03:23;21362.81;;;-141.84;39.83
15260;BME280;34462;51.368;12.364;2023-04-22T10:05:51;21370.94;;;-141.84;39.93
15260;BME280;34462;51.368;12.364;2023-04-22T10:08:20;21364.84;;;-141.84;40.22
15260;BME280;34462;51.368;12.364;2023-04-22T10:10:48;21381.09;;;-141.84;39.81
15260;BME280;34462;51.368;12.364;2023-04-22T10:13:17;21403.47;;;-141.84;39.90
15260;BME280;34462;51.368;12.364;2023-04-22T10:15:50;21423.81;;;-141.84;39.70
15260;BME280;34462;51.368;12.364;2023-04-22T10:18:22;21446.16;;;-141.84;39.60
15260;BME280;34462;51.368;12.364;2023-04-22T10:20:53;21444.13;;;-141.84;39.93
15260;BME280;34462;51.368;12.364;2023-04-22T10:23:24;21517.31;;;-141.84;38.84
15260;BME280;34462;51.368;12.364;2023-04-22T10:25:54;21543.75;;;-141.84;38.36
15260;BME280;34462;51.368;12.364;2023-04-22T10:28:28;21580.34;;;-141.84;38.46
15260;BME280;34462;51.368;12.364;2023-04-22T10:30:57;21623.06;;;-141.84;38.17
15260;BME280;34462;51.368;12.364;2023-04-22T10:33:40;21619.00;;;-141.84;36.96
15260;BME280;34462;51.368;12.364;2023-04-22T10:36:14;21641.34;;;-141.84;37.06
15260;BME280;34462;51.368;12.364;2023-04-22T10:39:16;21639.31;;;-141.84;36.20
15260;BME280;34462;51.368;12.364;2023-04-22T10:41:53;21657.63;;;-141.84;36.29
15260;BME280;34462;51.368;12.364;2023-04-22T10:44:26;21647.47;;;-141.84;37.40
15260;BME280;34462;51.368;12.364;2023-04-22T10:46:59;21675.94;;;-141.84;36.75
15260;BME280;34462;51.368;12.364;2023-04-22T10:49:30;21688.13;;;-141.84;36.44
15260;BME280;34462;51.368;12.364;2023-04-22T10:52:01;21690.16;;;-141.84;35.82
15260;BME280;34462;51.368;12.364;2023-04-22T10:54:57;21708.47;;;-141.84;35.00
15260;BME280;34462;51.368;12.364;2023-04-22T10:57:36;21698.28;;;-141.84;35.50
15260;BME280;34462;51.368;12.364;2023-04-22T11:00:27;21647.47;;;-141.84;35.35
15260;BME280;34462;51.368;12.364;2023-04-22T11:03:15;21651.53;;;-141.84;36.39
15260;BME280;34462;51.368;12.364;2023-04-22T11:05:44;21684.06;;;-141.84;35.57
15260;BME280;34462;51.368;12.364;2023-04-22T11:08:18;21708.47;;;-141.84;36.25
15260;BME280;34462;51.368;12.364;2023-04-22T11:10:49;21745.06;;;-141.84;36.31
15260;BME280;34462;51.368;12.364;2023-04-22T11:13:19;21708.47;;;-141.84;35.64
15260;BME280;34462;51.368;12.364;2023-04-22T11:15:49;21783.69;;;-141.84;35.21
15260;BME280;34462;51.368;12.364;2023-04-22T11:18:24;21757.25;;;-141.84;35.82
15260;BME280;34462;51.368;12.364;2023-04-22T11:20:53;21736.94;;;-141.84;35.92
15260;BME280;34462;51.368;12.364;2023-04-22T11:23:25;21743.03;;;-141.84;36.73
15260;BME280;34462;51.368;12.364;2023-04-22T11:25:58;21808.09;;;-141.84;36.43
15260;BME280;34462;51.368;12.364;2023-04-22T11:28:28;21802.00;;;-141.84;36.19
15260;BME280;34462;51.368;12.364;2023-04-22T11:31:07;21793.84;;;-141.84;35.97
15260;BME280;34462;51.368;12.364;2023-04-22T11:33:39;21781.66;;;-141.84;36.07
15260;BME280;34462;51.368;12.364;2023-04-22T11:36:09;21747.09;;;-141.84;36.32
15260;BME280;34462;51.368;12.364;2023-04-22T11:38:38;21785.72;;;-141.84;35.90
15260;BME280;34462;51.368;12.364;2023-04-22T11:41:06;21775.56;;;-141.84;36.51
15260;BME280;34462;51.368;12.364;2023-04-22T11:43:45;21797.94;;;-141.84;35.74
15260;BME280;34462;51.368;12.364;2023-04-22T11:46:14;21716.59;;;-141.84;35.72
15260;BME280;34462;51.368;12.364;2023-04-22T11:48:43;21751.16;;;-141.84;35.98
15260;BME280;34462;51.368;12.364;2023-04-22T11:51:11;21789.78;;;-141.84;35.91
15260;BME280;34462;51.368;12.364;2023-04-22T11:53:49;21726.75;;;-141.84;36.26
15260;BME280;34462;51.368;12.364;2023-04-22T11:56:19;21789.78;;;-141.84;36.22
15260;BME280;34462;51.368;12.364;2023-04-22T11:58:48;21787.75;;;-141.84;35.29
15260;BME280;34462;51.368;12.364;2023-04-22T12:01:17;21771.50;;;-141.84;35.85
15260;BME280;34462;51.368;12.364;2023-04-22T12:03:46;21785.72;;;-141.84;36.22
15260;BME280;34462;51.368;12.364;2023-04-22T12:06:16;21736.94;;;-141.84;35.75
15260;BME280;34462;51.368;12.364;2023-04-22T12:08:44;21736.94;;;-141.84;35.53
15260;BME280;34462;51.368;12.364;2023-04-22T12:11:13;21718.63;;;-141.84;36.31
15260;BME280;34462;51.368;12.364;2023-04-22T12:13:43;21696.25;;;-141.84;36.80
15260;BME280;34462;51.368;12.364;2023-04-22T12:16:15;21797.94;;;-141.84;36.26
15260;BME280;34462;51.368;12.364;2023-04-22T12:18:50;21747.09;;;-141.84;35.96
15260;BME280;34462;51.368;12.364;2023-04-22T12:21:21;21743.03;;;-141.84;36.30
15260;BME280;34462;51.368;12.364;2023-04-22T12:23:56;21789.78;;;-141.84;35.83
15260;BME280;34462;51.368;12.364;2023-04-22T12:26:25;21757.25;;;-141.84;36.09
15260;BME280;34462;51.368;12.364;2023-04-22T12:28:55;21783.69;;;-141.84;36.21
15260;BME280;34462;51.368;12.364;2023-04-22T12:31:24;21802.00;;;-141.84;36.01
15260;BME280;34462;51.368;12.364;2023-04-22T12:33:54;21797.94;;;-141.84;35.26
15260;BME280;34462;51.368;12.364;2023-04-22T12:36:23;21808.09;;;-141.84;35.19
15260;BME280;34462;51.368;12.364;2023-04-22T12:38:52;21777.59;;;-141.84;35.75
15260;BME280;34462;51.368;12.364;2023-04-22T12:41:20;21806.06;;;-141.84;35.88
15260;BME280;34462;51.368;12.364;2023-04-22T12:43:49;21797.94;;;-141.84;35.62
15260;BME280;34462;51.368;12.364;2023-04-22T12:46:18;21812.16;;;-141.84;35.60